createdAt,value
2019-01-11T00:01:32.989Z,18.97
2019-01-11T00:04:01.293Z,21.73
2019-01-11T00:06:29.558Z,18.60
2019-01-11T00:08:57.814Z,20.23
2019-01-11T00:11:26.145Z,19.10
2019-01-11T00:13:54.435Z,20.33
2019-01-11T00:16:22.750Z,20.60
2019-01-11T00:18:50.998Z,20.47
2019-01-11T00:21:19.291Z,17.87
2019-01-11T00:23:47.652Z,17.87
2019-01-11T00:26:16.022Z,19.50
2019-01-11T00:28:44.318Z,20.20
2019-01-11T00:31:12.616Z,20.10
2019-01-11T00:33:40.928Z,20.50
2019-01-11T00:36:09.185Z,19.07
2019-01-11T00:38:37.449Z,20.03
2019-01-11T00:41:05.724Z,20.30
2019-01-11T00:43:34.037Z,20.10
2019-01-11T00:46:02.421Z,20.30
2019-01-11T00:48:30.680Z,22.50
2019-01-11T00:50:58.942Z,20.73
2019-01-11T00:53:27.284Z,22.23
2019-01-11T00:55:55.517Z,22.20
2019-01-11T00:58:23.813Z,20.90
2019-01-11T01:00:52.133Z,21.33
2019-01-11T01:03:20.384Z,21.97
2019-01-11T01:05:48.649Z,21.47
2019-01-11T01:08:16.952Z,24.13
2019-01-11T01:10:45.318Z,24.50
2019-01-11T01:13:13.858Z,22.17
2019-01-11T01:15:42.103Z,23.60
2019-01-11T01:18:10.423Z,24.23
2019-01-11T01:20:38.876Z,23.97
2019-01-11T01:23:07.899Z,23.97
2019-01-11T01:25:36.238Z,24.20
2019-01-11T01:28:04.686Z,24.30
2019-01-11T01:30:32.984Z,24.10
2019-01-11T01:33:01.231Z,25.57
2019-01-11T01:35:29.543Z,25.70
2019-01-11T01:37:57.790Z,26.80
2019-01-11T01:40:26.081Z,26.97
2019-01-11T01:42:54.403Z,27.00
2019-01-11T01:45:22.713Z,24.77
2019-01-11T01:47:50.993Z,25.60
2019-01-11T01:50:20.056Z,28.20
2019-01-11T01:52:48.363Z,25.93
2019-01-11T01:55:16.696Z,25.17
2019-01-11T01:57:44.953Z,26.60
2019-01-11T02:00:15.984Z,27.00
2019-01-11T02:02:44.245Z,27.10
2019-01-11T02:05:12.606Z,27.10
2019-01-11T02:07:40.902Z,27.67
2019-01-11T02:10:11.354Z,26.53
2019-01-11T02:12:39.709Z,26.93
2019-01-11T02:15:09.699Z,28.43
2019-01-11T02:17:37.974Z,26.50
2019-01-11T02:20:09.502Z,27.03
2019-01-11T02:22:37.803Z,27.53
2019-01-11T02:25:06.834Z,28.10
2019-01-11T02:27:35.087Z,26.70
2019-01-11T02:30:04.158Z,27.30
2019-01-11T02:32:32.429Z,26.77
2019-01-11T02:35:01.028Z,27.77
2019-01-11T02:37:29.296Z,26.07
2019-01-11T02:39:57.554Z,27.17
2019-01-11T02:42:25.838Z,26.63
2019-01-11T02:44:54.091Z,27.57
2019-01-11T02:47:22.380Z,28.43
2019-01-11T02:49:50.701Z,27.47
2019-01-11T02:52:18.996Z,26.87
2019-01-11T02:54:47.270Z,28.60
2019-01-11T02:57:15.568Z,26.93
2019-01-11T02:59:43.914Z,26.73
2019-01-11T03:02:12.214Z,25.70
2019-01-11T03:04:40.534Z,28.90
2019-01-11T03:07:08.818Z,29.33
2019-01-11T03:09:37.106Z,27.67
2019-01-11T03:12:05.486Z,27.60
2019-01-11T03:14:33.768Z,28.00
2019-01-11T03:17:02.078Z,27.60
2019-01-11T03:19:30.349Z,28.27
2019-01-11T03:21:58.671Z,25.53
2019-01-11T03:24:27.107Z,27.07
2019-01-11T03:26:55.368Z,26.00
2019-01-11T03:29:23.663Z,27.57
2019-01-11T03:31:51.943Z,28.57
2019-01-11T03:34:20.221Z,30.10
2019-01-11T03:36:49.279Z,25.03
2019-01-11T03:39:17.620Z,25.93
2019-01-11T03:41:47.524Z,26.07
2019-01-11T03:44:15.773Z,27.17
2019-01-11T03:46:44.173Z,26.97
2019-01-11T03:49:12.484Z,27.83
2019-01-11T03:51:40.782Z,26.40
2019-01-11T03:54:09.061Z,26.70
2019-01-11T03:56:37.360Z,22.50
2019-01-11T03:59:05.783Z,27.47
2019-01-11T04:01:34.089Z,26.77
2019-01-11T04:04:02.351Z,25.97
2019-01-11T04:06:30.631Z,24.50
2019-01-11T04:08:58.878Z,26.23
2019-01-11T04:11:27.305Z,22.57
2019-01-11T04:13:55.613Z,24.97
2019-01-11T04:16:23.850Z,24.07
2019-01-11T04:18:53.769Z,23.13
2019-01-11T04:21:22.046Z,23.97
2019-01-11T04:23:50.419Z,22.70
2019-01-11T04:26:18.702Z,25.50
2019-01-11T04:28:47.005Z,23.90
2019-01-11T04:31:15.281Z,23.50
2019-01-11T04:33:43.599Z,25.53
2019-01-11T04:36:11.873Z,21.90
2019-01-11T04:38:40.129Z,25.00
2019-01-11T04:41:08.464Z,24.23
2019-01-11T04:43:36.710Z,22.53
2019-01-11T04:46:04.992Z,22.63
2019-01-11T04:48:34.139Z,20.43
2019-01-11T04:51:02.390Z,21.27
2019-01-11T04:53:30.682Z,21.80
2019-01-11T04:55:59.094Z,20.47
2019-01-11T04:58:27.345Z,19.63
2019-01-11T05:00:55.627Z,22.67
2019-01-11T05:03:24.290Z,20.33
2019-01-11T05:05:52.659Z,22.77
2019-01-11T05:08:20.963Z,22.03
2019-01-11T05:10:49.305Z,20.90
2019-01-11T05:13:37.117Z,20.60
2019-01-11T05:16:05.384Z,23.30
2019-01-11T05:18:33.790Z,24.93
2019-01-11T05:21:02.052Z,22.00
2019-01-11T05:23:30.310Z,25.17
2019-01-11T05:25:58.665Z,22.20
2019-01-11T05:28:27.004Z,24.80
2019-01-11T05:30:56.029Z,25.77
2019-01-11T05:33:24.374Z,24.97
2019-01-11T05:35:52.824Z,25.10
2019-01-11T05:38:21.084Z,28.53
2019-01-11T05:40:49.346Z,25.03
2019-01-11T05:43:19.581Z,23.27
2019-01-11T05:45:47.836Z,21.53
2019-01-11T05:48:16.094Z,21.67
2019-01-11T05:50:44.407Z,22.60
2019-01-11T05:53:12.678Z,20.77
2019-01-11T05:55:45.300Z,21.90
2019-01-11T05:58:18.050Z,19.80
2019-01-11T06:00:46.360Z,21.33
2019-01-11T06:03:14.644Z,22.47
2019-01-11T06:05:42.911Z,22.57
2019-01-11T06:08:12.883Z,20.30
2019-01-11T06:10:41.222Z,23.50
2019-01-11T06:13:09.670Z,19.30
2019-01-11T06:15:38.202Z,18.63
2019-01-11T06:18:06.504Z,17.87
2019-01-11T06:20:34.795Z,17.93
2019-01-11T06:23:03.121Z,18.73
2019-01-11T06:25:31.404Z,18.80
2019-01-11T06:27:59.742Z,18.50
2019-01-11T06:30:28.026Z,15.77
2019-01-11T06:32:56.352Z,16.83
2019-01-11T06:35:24.675Z,14.00
2019-01-11T06:37:52.928Z,14.77
2019-01-11T06:40:21.241Z,13.60
2019-01-11T06:42:49.704Z,15.17
2019-01-11T06:45:18.003Z,14.00
2019-01-11T06:47:46.448Z,12.37
2019-01-11T06:50:17.068Z,11.87
2019-01-11T06:52:45.349Z,11.20
2019-01-11T06:55:13.614Z,10.90
2019-01-11T06:57:41.936Z,9.67
2019-01-11T07:00:13.210Z,9.80
2019-01-11T07:02:41.525Z,9.30
2019-01-11T07:05:10.985Z,8.93
2019-01-11T07:07:39.701Z,9.97
2019-01-11T07:10:11.293Z,9.23
2019-01-11T07:12:39.573Z,8.43
2019-01-11T07:15:09.884Z,9.13
2019-01-11T07:17:38.200Z,7.73
2019-01-11T07:20:09.715Z,7.70
2019-01-11T07:22:37.957Z,7.63
2019-01-11T07:25:08.290Z,6.73
2019-01-11T07:27:38.211Z,6.60
2019-01-11T07:30:15.557Z,8.40
2019-01-11T07:32:44.032Z,5.97
2019-01-11T07:35:12.341Z,6.20
2019-01-11T07:37:40.618Z,9.33
2019-01-11T07:40:12.539Z,7.30
2019-01-11T07:42:40.917Z,6.00
2019-01-11T07:45:11.592Z,7.80
2019-01-11T07:47:39.967Z,6.07
2019-01-11T07:50:09.460Z,9.63
2019-01-11T07:52:37.789Z,8.40
2019-01-11T07:55:08.133Z,8.40
2019-01-11T07:57:36.543Z,9.70
2019-01-11T08:00:12.508Z,10.93
2019-01-11T08:02:41.325Z,7.93
2019-01-11T08:05:09.559Z,7.27
2019-01-11T08:07:37.835Z,7.67
2019-01-11T08:10:09.103Z,7.93
2019-01-11T08:12:37.472Z,6.50
2019-01-11T08:15:08.970Z,7.03
2019-01-11T08:17:37.229Z,8.13
2019-01-11T08:20:06.979Z,6.97
2019-01-11T08:22:36.872Z,8.73
2019-01-11T08:25:06.376Z,7.67
2019-01-11T08:27:34.728Z,7.13
2019-01-11T08:30:03.131Z,7.03
2019-01-11T08:32:31.432Z,5.73
2019-01-11T08:34:59.835Z,5.70
2019-01-11T08:37:29.101Z,7.30
2019-01-11T08:39:57.361Z,7.37
2019-01-11T08:42:25.676Z,6.93
2019-01-11T08:44:53.989Z,5.43
2019-01-11T08:47:22.266Z,7.03
2019-01-11T08:49:50.567Z,7.10
2019-01-11T08:52:18.855Z,7.73
2019-01-11T08:54:47.141Z,6.57
2019-01-11T08:57:16.267Z,6.53
2019-01-11T08:59:44.632Z,5.60
2019-01-11T09:02:13.064Z,7.37
2019-01-11T09:04:41.352Z,7.17
2019-01-11T09:07:09.621Z,6.10
2019-01-11T09:09:38.014Z,6.30
2019-01-11T09:12:06.349Z,7.47
2019-01-11T09:14:42.625Z,6.30
2019-01-11T09:17:10.865Z,8.03
2019-01-11T09:19:39.189Z,7.77
2019-01-11T09:22:07.489Z,7.50
2019-01-11T09:24:35.761Z,5.90
2019-01-11T09:27:04.216Z,5.90
2019-01-11T09:29:32.487Z,5.60
2019-01-11T09:32:00.910Z,4.67
2019-01-11T09:34:29.308Z,5.57
2019-01-11T09:36:57.665Z,5.70
2019-01-11T09:39:25.980Z,4.77
2019-01-11T09:41:54.269Z,5.63
2019-01-11T09:44:22.540Z,4.40
2019-01-11T09:46:50.865Z,5.10
2019-01-11T09:49:19.211Z,4.70
2019-01-11T09:51:47.493Z,3.40
2019-01-11T09:54:15.783Z,4.17
2019-01-11T09:56:44.112Z,3.97
2019-01-11T09:59:12.559Z,3.30
2019-01-11T10:01:40.930Z,3.43
2019-01-11T10:04:10.877Z,2.90
2019-01-11T10:06:40.922Z,3.60
2019-01-11T10:09:09.188Z,2.97
2019-01-11T10:11:37.538Z,2.97
2019-01-11T10:14:05.853Z,2.30
2019-01-11T10:16:34.192Z,3.23
2019-01-11T10:19:02.888Z,3.30
2019-01-11T10:21:31.242Z,3.37
2019-01-11T10:23:59.666Z,3.03
2019-01-11T10:26:28.128Z,2.83
2019-01-11T10:28:56.431Z,3.73
2019-01-11T10:31:24.699Z,2.47
2019-01-11T10:33:52.996Z,3.40
2019-01-11T10:36:22.162Z,2.53
2019-01-11T10:38:50.574Z,2.23
2019-01-11T10:41:18.918Z,2.63
2019-01-11T10:43:47.312Z,2.80
2019-01-11T10:46:20.195Z,2.63
2019-01-11T10:48:48.557Z,3.07
2019-01-11T10:51:19.089Z,2.63
2019-01-11T10:53:46.833Z,2.10
2019-01-11T10:56:15.091Z,1.93
2019-01-11T10:58:43.432Z,2.00
2019-01-11T11:01:11.679Z,3.23
2019-01-11T11:03:40.033Z,2.20
2019-01-11T11:06:08.306Z,1.57
2019-01-11T11:08:36.590Z,2.03
2019-01-11T11:11:04.861Z,1.60
2019-01-11T11:13:33.140Z,1.80
2019-01-11T11:16:01.531Z,2.17
2019-01-11T11:18:29.859Z,2.50
2019-01-11T11:20:58.109Z,2.37
2019-01-11T11:23:27.018Z,2.50
2019-01-11T11:25:55.316Z,2.67
2019-01-11T11:28:23.626Z,2.03
2019-01-11T11:30:52.046Z,2.07
2019-01-11T11:33:20.312Z,2.27
2019-01-11T11:35:48.573Z,2.67
2019-01-11T11:38:16.879Z,1.80
2019-01-11T11:40:45.178Z,3.00
2019-01-11T11:43:13.452Z,2.40
2019-01-11T11:45:41.715Z,1.73
2019-01-11T11:48:10.010Z,2.20
2019-01-11T11:50:38.259Z,2.33
2019-01-11T11:53:06.552Z,2.40
2019-01-11T11:55:34.835Z,5.40
2019-01-11T11:58:03.130Z,4.10
2019-01-11T12:00:31.469Z,2.97
2019-01-11T12:02:59.778Z,4.03
2019-01-11T12:05:28.225Z,2.23
2019-01-11T12:07:56.458Z,2.40
2019-01-11T12:10:24.715Z,2.30
2019-01-11T12:12:52.992Z,2.97
2019-01-11T12:15:21.249Z,2.17
2019-01-11T12:17:49.578Z,2.30
2019-01-11T12:20:24.299Z,2.23
2019-01-11T12:22:52.613Z,3.20
2019-01-11T12:25:21.468Z,2.13
2019-01-11T12:27:49.810Z,2.17
2019-01-11T12:30:18.306Z,2.07
2019-01-11T12:32:46.569Z,2.07
2019-01-11T12:35:14.853Z,2.50
2019-01-11T12:37:43.128Z,1.97
2019-01-11T12:40:13.871Z,1.73
2019-01-11T12:42:42.155Z,2.40
2019-01-11T12:45:13.130Z,1.80
2019-01-11T12:47:41.387Z,3.70
2019-01-11T12:50:12.934Z,2.03
2019-01-11T12:52:42.206Z,2.03
2019-01-11T12:55:10.530Z,2.03
2019-01-11T12:57:38.804Z,1.47
2019-01-11T13:00:10.621Z,1.70
2019-01-11T13:02:39.065Z,2.00
2019-01-11T13:05:09.665Z,1.27
2019-01-11T13:07:37.937Z,1.30
2019-01-11T13:10:09.312Z,1.67
2019-01-11T13:12:37.537Z,1.70
2019-01-11T13:15:09.205Z,2.03
2019-01-11T13:17:37.706Z,1.97
2019-01-11T13:20:09.294Z,3.07
2019-01-11T13:22:37.588Z,1.60
2019-01-11T13:25:07.112Z,1.43
2019-01-11T13:27:35.370Z,1.93
2019-01-11T13:30:06.050Z,1.80
2019-01-11T13:32:34.329Z,2.23
2019-01-11T13:35:02.590Z,2.03
2019-01-11T13:37:30.891Z,2.33
2019-01-11T13:39:59.488Z,2.33
2019-01-11T13:42:27.730Z,1.07
2019-01-11T13:44:56.109Z,1.60
2019-01-11T13:47:24.387Z,0.93
2019-01-11T13:49:52.714Z,1.40
2019-01-11T13:52:24.012Z,1.70
2019-01-11T13:54:52.331Z,1.90
2019-01-11T13:57:20.710Z,2.20
2019-01-11T13:59:48.956Z,2.13
2019-01-11T14:02:17.235Z,1.70
2019-01-11T14:04:45.509Z,1.60
2019-01-11T14:07:13.808Z,1.53
2019-01-11T14:09:42.089Z,2.37
2019-01-11T14:12:10.397Z,2.47
2019-01-11T14:14:38.772Z,2.90
2019-01-11T14:17:07.439Z,2.20
2019-01-11T14:19:35.682Z,2.80
2019-01-11T14:22:04.290Z,3.20
2019-01-11T14:24:32.662Z,2.80
2019-01-11T14:27:01.064Z,2.40
2019-01-11T14:29:29.355Z,3.00
2019-01-11T14:31:57.657Z,2.17
2019-01-11T14:34:26.070Z,3.20
2019-01-11T14:36:55.493Z,2.20
2019-01-11T14:39:23.915Z,2.10
2019-01-11T14:41:52.264Z,1.70
2019-01-11T14:44:20.744Z,1.97
2019-01-11T14:46:49.205Z,1.73
2019-01-11T14:49:17.457Z,1.83
2019-01-11T14:51:45.822Z,2.37
2019-01-11T14:54:14.096Z,2.30
2019-01-11T14:56:42.354Z,1.70
2019-01-11T14:59:10.697Z,1.40
2019-01-11T15:01:39.697Z,1.43
2019-01-11T15:04:08.063Z,2.40
2019-01-11T15:06:36.339Z,2.73
2019-01-11T15:09:06.859Z,1.47
2019-01-11T15:11:35.307Z,1.90
2019-01-11T15:14:04.306Z,1.13
2019-01-11T15:16:32.937Z,2.17
2019-01-11T15:19:03.627Z,2.07
2019-01-11T15:21:31.865Z,2.37
2019-01-11T15:24:00.194Z,2.43
2019-01-11T15:26:28.460Z,2.10
2019-01-11T15:28:56.752Z,2.57
2019-01-11T15:31:25.080Z,1.70
2019-01-11T15:33:53.355Z,2.53
2019-01-11T15:36:23.126Z,1.40
2019-01-11T15:38:51.493Z,3.50
2019-01-11T15:41:19.776Z,2.37
2019-01-11T15:43:48.156Z,2.47
2019-01-11T15:46:16.443Z,2.10
2019-01-11T15:48:46.991Z,3.37
2019-01-11T15:51:17.311Z,1.93
2019-01-11T15:53:45.600Z,1.97
2019-01-11T15:56:13.871Z,2.30
2019-01-11T15:58:42.319Z,2.67
2019-01-11T16:01:10.595Z,1.70
2019-01-11T16:03:38.890Z,1.47
2019-01-11T16:06:27.920Z,2.03
2019-01-11T16:09:14.475Z,1.27
2019-01-11T16:12:04.013Z,1.20
2019-01-11T16:14:44.265Z,1.50
2019-01-11T16:17:16.108Z,2.03
2019-01-11T16:19:45.131Z,1.33
2019-01-11T16:22:13.395Z,1.13
2019-01-11T16:24:41.679Z,1.20
2019-01-11T16:27:10.106Z,1.43
2019-01-11T16:29:38.430Z,1.00
2019-01-11T16:32:06.699Z,0.90
2019-01-11T16:34:35.012Z,1.30
2019-01-11T16:37:03.342Z,1.23
2019-01-11T16:39:31.682Z,1.50
2019-01-11T16:41:59.914Z,1.30
2019-01-11T16:44:28.192Z,1.20
2019-01-11T16:46:56.642Z,1.70
2019-01-11T16:49:24.925Z,1.40
2019-01-11T16:51:53.205Z,1.73
2019-01-11T16:54:21.516Z,1.27
2019-01-11T16:56:51.196Z,1.80
2019-01-11T16:59:20.053Z,2.10
2019-01-11T17:01:48.431Z,1.70
2019-01-11T17:04:16.832Z,2.00
2019-01-11T17:06:45.107Z,1.63
2019-01-11T17:09:13.509Z,2.50
2019-01-11T17:11:41.818Z,2.23
2019-01-11T17:14:10.434Z,2.10
2019-01-11T17:16:38.868Z,2.23
2019-01-11T17:19:07.175Z,1.97
2019-01-11T17:21:35.481Z,1.73
2019-01-11T17:24:03.740Z,2.97
2019-01-11T17:26:31.998Z,2.27
2019-01-11T17:29:00.324Z,3.50
2019-01-11T17:31:28.610Z,1.83
2019-01-11T17:33:56.920Z,2.20
2019-01-11T17:36:25.310Z,1.70
2019-01-11T17:38:53.646Z,2.07
2019-01-11T17:41:21.919Z,2.53
2019-01-11T17:43:50.224Z,2.00
2019-01-11T17:46:18.471Z,2.33
2019-01-11T17:48:46.820Z,4.10
2019-01-11T17:51:15.110Z,2.43
2019-01-11T17:53:43.415Z,2.30
2019-01-11T17:56:11.715Z,2.30
2019-01-11T17:58:39.991Z,2.53
2019-01-11T18:01:08.271Z,2.00
2019-01-11T18:03:36.575Z,3.27
2019-01-11T18:06:05.973Z,3.57
2019-01-11T18:08:34.408Z,3.30
2019-01-11T18:11:02.823Z,2.87
2019-01-11T18:13:31.098Z,2.23
2019-01-11T18:15:59.372Z,2.03
2019-01-11T18:18:27.651Z,1.90
2019-01-11T18:20:55.943Z,2.30
2019-01-11T18:23:24.201Z,2.60
2019-01-11T18:25:52.814Z,2.70
2019-01-11T18:28:21.055Z,2.70
2019-01-11T18:30:49.363Z,2.67
2019-01-11T18:33:17.680Z,4.87
2019-01-11T18:35:45.945Z,5.63
2019-01-11T18:38:14.211Z,3.53
2019-01-11T18:40:44.894Z,4.50
2019-01-11T18:43:13.346Z,3.27
2019-01-11T18:45:41.623Z,5.07
2019-01-11T18:48:09.887Z,3.20
2019-01-11T18:50:38.745Z,2.57
2019-01-11T18:53:13.480Z,4.03
2019-01-11T18:55:37.602Z,4.63
2019-01-11T18:58:05.946Z,3.67
2019-01-11T19:00:34.310Z,4.10
2019-01-11T19:03:02.601Z,2.60
2019-01-11T19:05:30.889Z,3.63
2019-01-11T19:07:59.215Z,3.40
2019-01-11T19:10:27.514Z,3.07
2019-01-11T19:12:55.794Z,4.13
2019-01-11T19:15:26.639Z,3.67
2019-01-11T19:17:54.923Z,1.90
2019-01-11T19:20:27.800Z,2.80
2019-01-11T19:22:56.068Z,3.73
2019-01-11T19:25:24.365Z,5.57
2019-01-11T19:27:52.669Z,2.97
2019-01-11T19:30:25.786Z,3.03
2019-01-11T19:32:54.033Z,2.53
2019-01-11T19:35:22.308Z,3.27
2019-01-11T19:37:50.637Z,2.40
2019-01-11T19:40:18.944Z,3.10
2019-01-11T19:42:47.571Z,3.00
2019-01-11T19:45:17.028Z,4.47
2019-01-11T19:47:45.343Z,5.13
2019-01-11T19:50:15.751Z,3.53
2019-01-11T19:52:46.972Z,3.63
2019-01-11T19:55:15.553Z,2.70
2019-01-11T19:57:43.783Z,2.60
2019-01-11T20:00:20.843Z,3.00
2019-01-11T20:02:50.674Z,4.07
2019-01-11T20:05:19.392Z,3.10
2019-01-11T20:07:47.910Z,3.83
2019-01-11T20:10:22.998Z,2.60
2019-01-11T20:12:51.460Z,3.37
2019-01-11T20:15:19.980Z,3.50
2019-01-11T20:17:48.258Z,3.20
2019-01-11T20:20:16.620Z,3.40
2019-01-11T20:22:45.004Z,2.20
2019-01-11T20:25:18.860Z,2.30
2019-01-11T20:27:47.109Z,1.90
2019-01-11T20:30:17.994Z,3.10
2019-01-11T20:32:46.299Z,3.60
2019-01-11T20:35:14.710Z,4.43
2019-01-11T20:37:43.049Z,6.03
2019-01-11T20:40:13.717Z,4.00
2019-01-11T20:42:42.013Z,4.17
2019-01-11T20:45:14.942Z,5.83
2019-01-11T20:47:43.736Z,5.87
2019-01-11T20:50:16.526Z,4.33
2019-01-11T20:52:44.859Z,5.60
2019-01-11T20:55:13.142Z,3.80
2019-01-11T20:57:41.473Z,3.80
2019-01-11T21:00:18.822Z,2.70
2019-01-11T21:02:47.218Z,3.87
2019-01-11T21:05:15.746Z,3.37
2019-01-11T21:07:44.031Z,2.87
2019-01-11T21:10:13.144Z,3.73
2019-01-11T21:12:41.413Z,3.47
2019-01-11T21:15:12.677Z,3.77
2019-01-11T21:17:40.962Z,2.97
2019-01-11T21:20:12.194Z,3.80
2019-01-11T21:22:42.114Z,3.03
2019-01-11T21:25:12.435Z,3.20
2019-01-11T21:27:40.711Z,3.27
2019-01-11T21:30:14.712Z,2.70
2019-01-11T21:32:43.005Z,2.00
2019-01-11T21:35:11.252Z,3.20
2019-01-11T21:37:39.578Z,2.80
2019-01-11T21:40:11.230Z,5.07
2019-01-11T21:42:39.500Z,2.60
2019-01-11T21:45:09.429Z,3.80
2019-01-11T21:47:37.739Z,4.10
2019-01-11T21:50:09.281Z,2.87
2019-01-11T21:52:37.550Z,1.93
2019-01-11T21:55:06.914Z,4.27
2019-01-11T21:57:35.291Z,3.47
2019-01-11T22:00:05.602Z,3.90
2019-01-11T22:02:33.902Z,3.70
2019-01-11T22:05:02.209Z,2.83
2019-01-11T22:07:30.550Z,3.10
2019-01-11T22:09:58.776Z,1.50
2019-01-11T22:12:27.198Z,1.30
2019-01-11T22:14:55.467Z,1.67
2019-01-11T22:17:23.713Z,5.00
2019-01-11T22:19:52.097Z,1.60
2019-01-11T22:22:20.349Z,0.83
2019-01-11T22:24:48.607Z,1.40
2019-01-11T22:27:16.916Z,1.73
2019-01-11T22:29:45.206Z,1.33
2019-01-11T22:32:13.546Z,1.70
2019-01-11T22:34:41.791Z,1.30
2019-01-11T22:37:10.040Z,1.07
2019-01-11T22:39:38.343Z,1.00
2019-01-11T22:42:06.715Z,1.53
2019-01-11T22:44:34.987Z,1.40
2019-01-11T22:47:03.242Z,1.43
2019-01-11T22:49:31.569Z,1.60
2019-01-11T22:51:59.827Z,1.10
2019-01-11T22:54:28.089Z,1.73
2019-01-11T22:56:56.776Z,1.23
2019-01-11T22:59:25.134Z,0.97
2019-01-11T23:01:56.672Z,1.10
2019-01-11T23:04:24.931Z,1.53
2019-01-11T23:07:02.710Z,1.97
2019-01-11T23:09:33.833Z,1.23
2019-01-11T23:12:20.711Z,0.60
2019-01-11T23:14:48.998Z,2.20
2019-01-11T23:17:20.533Z,1.80
2019-01-11T23:19:48.973Z,1.10
2019-01-11T23:22:17.240Z,1.50
2019-01-11T23:24:45.569Z,1.60
2019-01-11T23:27:13.956Z,0.80
2019-01-11T23:29:42.268Z,1.30
2019-01-11T23:32:10.665Z,1.00
2019-01-11T23:34:38.983Z,1.10
2019-01-11T23:37:07.429Z,1.50
2019-01-11T23:39:35.697Z,1.40
2019-01-11T23:42:04.042Z,2.07
2019-01-11T23:44:32.364Z,1.30
2019-01-11T23:47:00.791Z,3.60
2019-01-11T23:49:29.101Z,3.37
2019-01-11T23:51:57.382Z,1.37
2019-01-11T23:54:25.724Z,1.67
2019-01-11T23:56:54.371Z,1.30
2019-01-11T23:59:22.648Z,1.30
